| time (UTC) | temp F | wind direction | speed knots | gust knots | rain 1hr in | rain 24hr in | rain mn in | humidity % | barometer mb |
| 20260505153024 | 77 | 262 | 5.2 | 12.2 | 0.00 | 0.00 | 0.00 | 45 | 1009.7 |
| 20260505152507 | 77 | 293 | 4.3 | 11.3 | 0.00 | 0.00 | 0.00 | 47 | 1009.6 |
| 20260505152011 | 76 | 243 | 4.3 | 12.2 | 0.00 | 0.00 | 0.00 | 47 | 1009.7 |
| 20260505151529 | 76 | 265 | 7.0 | 13.0 | 0.00 | 0.00 | 0.00 | 43 | 1009.7 |
| 20260505151012 | 76 | 280 | 3.5 | 13.0 | 0.00 | 0.00 | 0.00 | 49 | 1009.8 |
| 20260505150516 | 76 | 207 | 4.3 | 9.6 | 0.00 | 0.00 | 0.00 | 46 | 1009.8 |
| 20260505140512 | 73 | 254 | 5.2 | 12.2 | 0.00 | 0.00 | 0.00 | 48 | 1010.1 |
| 20260505125013 | 69 | 290 | 3.5 | 7.8 | 0.00 | 0.00 | 0.00 | 55 | 1010.9 |
| 20260505124534 | 68 | 184 | 2.6 | 7.0 | 0.00 | 0.00 | 0.00 | 57 | 1010.9 |
| 20260505124002 | 68 | 312 | 1.7 | 7.0 | 0.00 | 0.00 | 0.00 | 58 | 1010.9 |
| 20260505123502 | 68 | 151 | 1.7 | 3.5 | 0.00 | 0.00 | 0.00 | 59 | 1010.9 |
| 20260505123012 | 67 | 158 | 0.9 | 3.5 | 0.00 | 0.00 | 0.00 | 59 | 1010.9 |
| 20260505122508 | 67 | 162 | 0.0 | 3.5 | 0.00 | 0.00 | 0.00 | 62 | 1010.9 |
| 20260505122008 | 66 | 146 | 0.9 | 4.3 | 0.00 | 0.00 | 0.00 | 62 | 1010.9 |
| 20260505121532 | 65 | 153 | 1.7 | 4.3 | 0.00 | 0.00 | 0.00 | 63 | 1010.8 |
| 20260505121007 | 65 | 254 | 1.7 | 4.3 | 0.00 | 0.00 | 0.00 | 66 | 1010.8 |
| 20260505120511 | 64 | 235 | 1.7 | 3.5 | 0.00 | 0.00 | 0.00 | 67 | 1010.7 |
| 20260505120040 | 63 | 221 | 0.0 | 3.5 | 0.00 | 0.00 | 0.00 | 72 | 1010.7 |
| 20260505115502 | 62 | 217 | 0.0 | 2.6 | 0.00 | 0.00 | 0.00 | 72 | 1010.6 |
| 20260505115003 | 61 | 94 | 0.0 | 1.7 | 0.00 | 0.00 | 0.00 | 72 | 1010.5 |
| 20260505114521 | 60 | 34 | 0.0 | 2.6 | 0.00 | 0.00 | 0.00 | 75 | 1010.5 |
| 20260505114008 | 59 | 34 | 0.0 | 2.6 | 0.00 | 0.00 | 0.00 | 78 | 1010.4 |
| 20260505113506 | 58 | 20 | 0.9 | 1.7 | 0.00 | 0.00 | 0.00 | 80 | 1010.3 |
| 20260505113022 | 57 | 20 | 0.0 | 1.7 | 0.00 | 0.00 | 0.00 | 82 | 1010.3 |
| 20260505112506 | 56 | 20 | 0.0 | 1.7 | 0.00 | 0.00 | 0.00 | 83 | 1010.2 |
| 20260505112011 | 55 | 18 | 0.0 | 0.9 | 0.00 | 0.00 | 0.00 | 83 | 1010.2 |
| 20260505111515 | 54 | 18 | 0.0 | 0.9 | 0.00 | 0.00 | 0.00 | 84 | 1010.2 |
| 20260505111004 | 54 | 18 | 0.0 | 0.9 | 0.00 | 0.00 | 0.00 | 84 | 1010.1 |
| 20260505110503 | 53 | 18 | 0.0 | 0.9 | 0.00 | 0.00 | 0.00 | 85 | 1010.1 |
| 20260505102007 | 51 | 6 | 0.9 | 1.7 | 0.00 | 0.00 | 0.00 | 85 | 1009.7 |
| 20260505101531 | 51 | 38 | 0.0 | 0.9 | 0.00 | 0.00 | 0.00 | 85 | 1009.7 |
| 20260505101014 | 51 | 37 | 0.0 | 0.9 | 0.00 | 0.00 | 0.00 | 85 | 1009.6 |
| 20260505100503 | 51 | 38 | 0.9 | 1.7 | 0.00 | 0.00 | 0.00 | 85 | 1009.6 |
| 20260505100003 | 51 | 38 | 0.0 | 1.7 | 0.00 | 0.00 | 0.00 | 84 | 1009.5 |
| 20260505095503 | 51 | 351 | 0.9 | 1.7 | 0.00 | 0.00 | 0.00 | 85 | 1009.5 |
| 20260505095003 | 51 | 41 | 0.0 | 0.9 | 0.00 | 0.00 | 0.00 | 85 | 1009.3 |
| 20260505094503 | 51 | 321 | 0.0 | 0.9 | 0.00 | 0.00 | 0.00 | 85 | 1009.4 |
| 20260505094003 | 51 | 10 | 0.0 | 0.9 | 0.00 | 0.00 | 0.00 | 85 | 1009.4 |
| 20260505093503 | 51 | 10 | 0.0 | 0.9 | 0.00 | 0.00 | 0.00 | 84 | 1009.4 |
| 20260505093003 | 51 | 10 | 0.0 | 0.9 | 0.00 | 0.00 | 0.00 | 84 | 1009.4 |
| 20260505092503 | 51 | 10 | 0.0 | 0.9 | 0.00 | 0.00 | 0.00 | 84 | 1009.3 |
| 20260505092003 | 51 | 10 | 0.0 | 0.9 | 0.00 | 0.00 | 0.00 | 83 | 1009.3 |
| 20260505091503 | 52 | 10 | 0.0 | 0.9 | 0.00 | 0.00 | 0.00 | 83 | 1009.4 |
| 20260505091004 | 52 | 4 | 0.0 | 1.7 | 0.00 | 0.00 | 0.00 | 83 | 1009.4 |
| 20260505090503 | 52 | 4 | 0.9 | 1.7 | 0.00 | 0.00 | 0.00 | 82 | 1009.5 |
| 20260505090012 | 53 | 233 | 0.0 | 0.9 | 0.00 | 0.00 | 0.00 | 82 | 1009.3 |
| 20260505085502 | 53 | 233 | 0.0 | 0.9 | 0.00 | 0.00 | 0.00 | 83 | 1009.3 |
| 20260505085004 | 52 | 233 | 0.0 | 0.9 | 0.00 | 0.00 | 0.00 | 82 | 1009.3 |
| 20260505084503 | 52 | 6 | 0.0 | 0.9 | 0.00 | 0.00 | 0.00 | 82 | 1009.3 |
| 20260505084003 | 53 | 6 | 0.0 | 0.9 | 0.00 | 0.00 | 0.00 | 82 | 1009.2 |
| 20260505083503 | 53 | 6 | 0.0 | 0.9 | 0.00 | 0.00 | 0.00 | 81 | 1009.3 |
| 20260505083013 | 53 | 6 | 0.0 | 0.9 | 0.00 | 0.00 | 0.00 | 81 | 1009.3 |
| 20260505082502 | 53 | 6 | 0.0 | 0.9 | 0.00 | 0.00 | 0.00 | 81 | 1009.2 |
| 20260505082002 | 54 | 6 | 0.0 | 0.9 | 0.00 | 0.00 | 0.00 | 81 | 1009.2 |
| 20260505081504 | 54 | 6 | 0.0 | 0.9 | 0.00 | 0.00 | 0.00 | 80 | 1009.2 |
| 20260505081007 | 54 | 332 | 0.9 | 0.9 | 0.00 | 0.00 | 0.00 | 80 | 1009.1 |
| 20260505080504 | 54 | 28 | 0.0 | 1.7 | 0.00 | 0.00 | 0.00 | 80 | 1009.2 |
| 20260505080005 | 55 | 28 | 0.0 | 1.7 | 0.00 | 0.00 | 0.00 | 80 | 1009.2 |
| 20260505075506 | 55 | 126 | 0.0 | 1.7 | 0.00 | 0.00 | 0.00 | 79 | 1009.2 |
| 20260505075005 | 55 | 128 | 0.0 | 0.9 | 0.00 | 0.00 | 0.00 | 79 | 1009.2 |
| 20260505074504 | 55 | 128 | 0.0 | 0.9 | 0.00 | 0.00 | 0.00 | 79 | 1009.1 |
| 20260505074003 | 55 | 128 | 0.0 | 0.9 | 0.00 | 0.00 | 0.00 | 78 | 1009.1 |
| 20260505073506 | 56 | 128 | 0.0 | 0.9 | 0.00 | 0.00 | 0.00 | 77 | 1009.0 |
| 20260505073003 | 56 | 128 | 0.0 | 0.9 | 0.00 | 0.00 | 0.00 | 76 | 1008.9 |
| 20260505072503 | 57 | 128 | 0.0 | 0.9 | 0.00 | 0.00 | 0.00 | 75 | 1008.9 |
| 20260505072002 | 57 | 128 | 0.0 | 0.9 | 0.00 | 0.00 | 0.00 | 75 | 1008.9 |
| 20260505071515 | 57 | 128 | 0.0 | 0.9 | 0.00 | 0.00 | 0.00 | 75 | 1008.9 |
| 20260505071003 | 57 | 128 | 0.0 | 0.9 | 0.00 | 0.00 | 0.00 | 74 | 1009.0 |
| 20260505070506 | 58 | 128 | 0.0 | 0.9 | 0.00 | 0.00 | 0.00 | 72 | 1008.9 |
| 20260505070004 | 59 | 128 | 0.0 | 0.9 | 0.00 | 0.00 | 0.00 | 72 | 1009.0 |
| 20260505065503 | 58 | 38 | 0.0 | 0.9 | 0.00 | 0.00 | 0.00 | 71 | 1009.0 |
| 20260505065005 | 58 | 356 | 0.0 | 0.9 | 0.00 | 0.00 | 0.00 | 72 | 1009.1 |
| 20260505064508 | 57 | 356 | 0.0 | 0.9 | 0.00 | 0.00 | 0.00 | 72 | 1009.0 |
| 20260505064002 | 57 | 356 | 0.0 | 0.9 | 0.00 | 0.00 | 0.00 | 73 | 1009.2 |
| 20260505063502 | 57 | 356 | 0.0 | 0.9 | 0.00 | 0.00 | 0.00 | 73 | 1009.2 |
| 20260505063004 | 57 | 356 | 0.0 | 0.9 | 0.00 | 0.00 | 0.00 | 73 | 1009.2 |
| 20260505062503 | 57 | 356 | 0.0 | 0.9 | 0.00 | 0.00 | 0.00 | 73 | 1009.3 |
| 20260505062002 | 57 | 356 | 0.0 | 0.9 | 0.00 | 0.00 | 0.00 | 73 | 1009.4 |
| 20260505061507 | 57 | 356 | 0.9 | 0.9 | 0.00 | 0.00 | 0.00 | 73 | 1009.4 |
| 20260505061003 | 58 | 149 | 0.0 | 0.0 | 0.00 | 0.00 | 0.00 | 72 | 1009.3 |
| 20260505060503 | 58 | 149 | 0.0 | 0.0 | 0.00 | 0.00 | 0.00 | 71 | 1009.4 |
| 20260505060016 | 59 | 149 | 0.0 | 0.0 | 0.00 | 0.00 | 0.00 | 69 | 1009.4 |
| 20260505055503 | 59 | 149 | 0.0 | 0.0 | 0.00 | 0.00 | 0.00 | 66 | 1009.4 |
| 20260505055004 | 60 | 149 | 0.0 | 0.0 | 0.00 | 0.00 | 0.00 | 66 | 1009.4 |
| 20260505054504 | 60 | 150 | 0.0 | 0.0 | 0.00 | 0.00 | 0.00 | 63 | 1009.5 |
| 20260505054006 | 60 | 149 | 0.0 | 1.7 | 0.00 | 0.00 | 0.00 | 62 | 1009.4 |
| 20260505053503 | 60 | 150 | 0.0 | 1.7 | 0.00 | 0.00 | 0.00 | 62 | 1009.4 |
| 20260505053004 | 60 | 146 | 0.0 | 1.7 | 0.00 | 0.00 | 0.00 | 63 | 1009.3 |
| 20260505052502 | 60 | 148 | 0.9 | 1.7 | 0.00 | 0.00 | 0.00 | 63 | 1009.4 |
| 20260505052003 | 59 | 153 | 0.9 | 1.7 | 0.00 | 0.00 | 0.00 | 65 | 1009.3 |
| 20260505051516 | 59 | 152 | 0.9 | 2.6 | 0.00 | 0.00 | 0.00 | 66 | 1009.2 |
| 20260505051003 | 59 | 150 | 0.9 | 2.6 | 0.00 | 0.00 | 0.00 | 66 | 1009.3 |
| 20260505050504 | 58 | 154 | 0.9 | 1.7 | 0.00 | 0.00 | 0.00 | 67 | 1009.2 |
| 20260505041511 | 60 | 127 | 0.0 | 1.7 | 0.00 | 0.00 | 0.00 | 61 | 1009.0 |
| 20260505041003 | 61 | 160 | 0.0 | 1.7 | 0.00 | 0.00 | 0.00 | 59 | 1009.1 |
| 20260505040503 | 61 | 122 | 0.9 | 1.7 | 0.00 | 0.00 | 0.00 | 58 | 1009.2 |
| 20260505040005 | 61 | 154 | 0.9 | 1.7 | 0.00 | 0.00 | 0.00 | 58 | 1009.2 |
| 20260505035503 | 61 | 139 | 0.0 | 1.7 | 0.00 | 0.00 | 0.00 | 58 | 1009.2 |
| 20260505035003 | 61 | 131 | 0.9 | 2.6 | 0.00 | 0.00 | 0.00 | 58 | 1009.0 |
| 20260505034507 | 61 | 155 | 0.9 | 2.6 | 0.00 | 0.00 | 0.00 | 57 | 1009.0 |
| 20260505034003 | 61 | 143 | 0.9 | 1.7 | 0.00 | 0.00 | 0.00 | 57 | 1008.9 |
| 20260505033506 | 61 | 142 | 0.0 | 0.9 | 0.00 | 0.00 | 0.00 | 57 | 1008.9 |
| 20260505033008 | 61 | 146 | 0.0 | 0.9 | 0.00 | 0.00 | 0.00 | 57 | 1009.0 |
| 20260505032503 | 62 | 146 | 0.0 | 0.9 | 0.00 | 0.00 | 0.00 | 56 | 1008.9 |
| 20260505032003 | 62 | 146 | 0.0 | 2.6 | 0.00 | 0.00 | 0.00 | 56 | 1008.9 |
| 20260505031508 | 62 | 146 | 0.9 | 3.5 | 0.00 | 0.00 | 0.00 | 55 | 1009.0 |
| 20260505031004 | 62 | 157 | 1.7 | 4.3 | 0.00 | 0.00 | 0.00 | 55 | 1009.0 |
| 20260505030503 | 63 | 173 | 1.7 | 5.2 | 0.00 | 0.00 | 0.00 | 55 | 1009.0 |
| 20260505030012 | 62 | 197 | 2.6 | 5.2 | 0.00 | 0.00 | 0.00 | 55 | 1008.9 |
| 20260505025507 | 62 | 154 | 1.7 | 4.3 | 0.00 | 0.00 | 0.00 | 55 | 1008.8 |
| 20260505025004 | 62 | 191 | 2.6 | 4.3 | 0.00 | 0.00 | 0.00 | 56 | 1009.0 |
| 20260505024513 | 62 | 162 | 2.6 | 5.2 | 0.00 | 0.00 | 0.00 | 55 | 1009.0 |
| 20260505024004 | 62 | 162 | 2.6 | 5.2 | 0.00 | 0.00 | 0.00 | 55 | 1009.0 |
| 20260505023503 | 62 | 137 | 3.5 | 5.2 | 0.00 | 0.00 | 0.00 | 55 | 1009.0 |
| 20260505023019 | 62 | 172 | 1.7 | 3.5 | 0.00 | 0.00 | 0.00 | 55 | 1009.0 |
| 20260505022503 | 62 | 149 | 1.7 | 2.6 | 0.00 | 0.00 | 0.00 | 54 | 1009.0 |
| 20260505022004 | 63 | 108 | 0.9 | 1.7 | 0.00 | 0.00 | 0.00 | 54 | 1009.1 |
| 20260505021515 | 63 | 94 | 0.9 | 1.7 | 0.00 | 0.00 | 0.00 | 53 | 1009.0 |
| 20260505021006 | 63 | 134 | 0.0 | 1.7 | 0.00 | 0.00 | 0.00 | 53 | 1009.1 |
| 20260505020503 | 63 | 146 | 0.9 | 2.6 | 0.00 | 0.00 | 0.00 | 52 | 1009.1 |
| 20260505020012 | 63 | 100 | 0.9 | 3.5 | 0.00 | 0.00 | 0.00 | 52 | 1009.0 |
| 20260505015503 | 63 | 148 | 0.9 | 3.5 | 0.00 | 0.00 | 0.00 | 52 | 1009.0 |
| 20260505015003 | 63 | 152 | 0.9 | 3.5 | 0.00 | 0.00 | 0.00 | 52 | 1008.8 |
| 20260505014514 | 64 | 146 | 1.7 | 3.5 | 0.00 | 0.00 | 0.00 | 52 | 1009.0 |
| 20260505014006 | 64 | 147 | 0.9 | 3.5 | 0.00 | 0.00 | 0.00 | 52 | 1009.2 |
| 20260505013505 | 64 | 159 | 1.7 | 5.2 | 0.00 | 0.00 | 0.00 | 52 | 1009.2 |
| 20260505013011 | 64 | 164 | 0.9 | 5.2 | 0.00 | 0.00 | 0.00 | 52 | 1009.2 |
| 20260505012504 | 64 | 155 | 2.6 | 5.2 | 0.00 | 0.00 | 0.00 | 52 | 1009.1 |
| 20260505012004 | 64 | 139 | 2.6 | 5.2 | 0.00 | 0.00 | 0.00 | 51 | 1009.0 |
| 20260505011518 | 64 | 149 | 2.6 | 5.2 | 0.00 | 0.00 | 0.00 | 51 | 1009.0 |
| 20260505011005 | 64 | 146 | 1.7 | 4.3 | 0.00 | 0.00 | 0.00 | 51 | 1008.9 |
| 20260505010510 | 64 | 133 | 1.7 | 4.3 | 0.00 | 0.00 | 0.00 | 51 | 1008.8 |
| 20260505010013 | 64 | 152 | 1.7 | 3.5 | 0.00 | 0.00 | 0.00 | 51 | 1008.8 |
| 20260505005507 | 64 | 150 | 1.7 | 3.5 | 0.00 | 0.00 | 0.00 | 51 | 1008.7 |
| 20260505005006 | 65 | 131 | 0.9 | 3.5 | 0.00 | 0.00 | 0.00 | 51 | 1008.6 |
| 20260505004520 | 65 | 147 | 1.7 | 3.5 | 0.00 | 0.00 | 0.00 | 50 | 1008.5 |
| 20260505004008 | 65 | 137 | 0.9 | 2.6 | 0.00 | 0.00 | 0.00 | 50 | 1008.5 |
| 20260505003511 | 65 | 139 | 1.7 | 4.3 | 0.00 | 0.00 | 0.00 | 50 | 1008.5 |
| 20260505003012 | 66 | 160 | 1.7 | 4.3 | 0.00 | 0.00 | 0.00 | 49 | 1008.5 |
| 20260505002505 | 66 | 154 | 1.7 | 4.3 | 0.00 | 0.00 | 0.00 | 48 | 1008.5 |
| 20260505002007 | 66 | 161 | 1.7 | 5.2 | 0.00 | 0.00 | 0.00 | 48 | 1008.5 |
| 20260505001517 | 66 | 158 | 2.6 | 6.1 | 0.00 | 0.00 | 0.00 | 47 | 1008.5 |
| 20260505001004 | 67 | 139 | 1.7 | 9.6 | 0.00 | 0.00 | 0.00 | 47 | 1008.5 |
| 20260505000504 | 67 | 221 | 2.6 | 10.4 | 0.00 | 0.00 | 0.00 | 46 | 1008.2 |
| 20260505000023 | 68 | 198 | 3.5 | 10.4 | 0.00 | 0.00 | 0.00 | 46 | 1008.2 |
| 20260504235504 | 68 | 109 | 4.3 | 11.3 | 0.00 | 0.00 | 0.00 | 46 | 1008.2 |
| 20260504235004 | 69 | 174 | 4.3 | 11.3 | 0.00 | 0.00 | 0.00 | 45 | 1008.1 |
| 20260504234513 | 69 | 139 | 5.2 | 10.4 | 0.00 | 0.00 | 0.00 | 45 | 1008.1 |
| 20260504234003 | 70 | 143 | 5.2 | 11.3 | 0.00 | 0.00 | 0.00 | 44 | 1008.0 |
| 20260504233503 | 70 | 155 | 5.2 | 11.3 | 0.00 | 0.00 | 0.00 | 43 | 1008.1 |
| 20260504233005 | 71 | 183 | 5.2 | 10.4 | 0.00 | 0.00 | 0.00 | 42 | 1008.1 |
| 20260504232502 | 71 | 149 | 3.5 | 7.8 | 0.00 | 0.00 | 0.00 | 41 | 1007.9 |
| 20260504232004 | 72 | 172 | 2.6 | 7.8 | 0.00 | 0.00 | 0.00 | 41 | 1007.9 |
| 20260504231510 | 72 | 160 | 3.5 | 9.6 | 0.00 | 0.00 | 0.00 | 40 | 1007.9 |
| 20260504231003 | 73 | 249 | 2.6 | 9.6 | 0.00 | 0.00 | 0.00 | 39 | 1008.0 |
| 20260504230504 | 73 | 205 | 3.5 | 10.4 | 0.00 | 0.00 | 0.00 | 40 | 1008.0 |
| 20260504230010 | 73 | 192 | 1.7 | 10.4 | 0.00 | 0.00 | 0.00 | 39 | 1008.1 |
| 20260504225506 | 73 | 205 | 4.3 | 8.7 | 0.00 | 0.00 | 0.00 | 39 | 1008.2 |
| 20260504225005 | 73 | 132 | 3.5 | 9.6 | 0.00 | 0.00 | 0.00 | 40 | 1008.0 |
| 20260504224503 | 73 | 188 | 4.3 | 13.0 | 0.00 | 0.00 | 0.00 | 39 | 1008.0 |
| 20260504224003 | 73 | 202 | 5.2 | 13.0 | 0.00 | 0.00 | 0.00 | 38 | 1008.1 |
| 20260504223503 | 74 | 262 | 2.6 | 10.4 | 0.00 | 0.00 | 0.00 | 40 | 1008.1 |
| 20260504223009 | 74 | 189 | 5.2 | 10.4 | 0.00 | 0.00 | 0.00 | 38 | 1008.1 |
| 20260504222503 | 73 | 210 | 3.5 | 14.8 | 0.00 | 0.00 | 0.00 | 38 | 1008.3 |
| 20260504222005 | 74 | 231 | 6.1 | 14.8 | 0.00 | 0.00 | 0.00 | 37 | 1008.3 |
| 20260504221512 | 74 | 184 | 6.1 | 13.0 | 0.00 | 0.00 | 0.00 | 38 | 1008.1 |
| 20260504221003 | 74 | 262 | 5.2 | 10.4 | 0.00 | 0.00 | 0.00 | 38 | 1008.0 |
| 20260504220505 | 74 | 195 | 4.3 | 9.6 | 0.00 | 0.00 | 0.00 | 39 | 1008.0 |
| 20260504220006 | 74 | 176 | 4.3 | 9.6 | 0.00 | 0.00 | 0.00 | 37 | 1008.1 |
| 20260504215505 | 74 | 169 | 4.3 | 9.6 | 0.00 | 0.00 | 0.00 | 37 | 1008.1 |
| 20260504215003 | 74 | 184 | 3.5 | 9.6 | 0.00 | 0.00 | 0.00 | 40 | 1008.4 |
| 20260504214518 | 74 | 189 | 5.2 | 9.6 | 0.00 | 0.00 | 0.00 | 38 | 1008.2 |
| 20260504214010 | 74 | 162 | 4.3 | 11.3 | 0.00 | 0.00 | 0.00 | 39 | 1008.1 |
| 20260504213506 | 74 | 217 | 4.3 | 11.3 | 0.00 | 0.00 | 0.00 | 39 | 1008.1 |
| 20260504213012 | 74 | 146 | 6.1 | 11.3 | 0.00 | 0.00 | 0.00 | 38 | 1008.2 |
| 20260504212503 | 74 | 285 | 6.1 | 10.4 | 0.00 | 0.00 | 0.00 | 36 | 1008.1 |
| 20260504212002 | 74 | 231 | 5.2 | 8.7 | 0.00 | 0.00 | 0.00 | 37 | 1008.1 |
| 20260504211510 | 74 | 270 | 3.5 | 13.0 | 0.00 | 0.00 | 0.00 | 37 | 1008.1 |
| 20260504211003 | 74 | 217 | 4.3 | 13.0 | 0.00 | 0.00 | 0.00 | 36 | 1008.2 |
| 20260504210503 | 74 | 195 | 4.3 | 12.2 | 0.00 | 0.00 | 0.00 | 37 | 1008.0 |
| 20260504210014 | 74 | 200 | 5.2 | 12.2 | 0.00 | 0.00 | 0.00 | 38 | 1008.1 |
| 20260504205506 | 74 | 169 | 4.3 | 11.3 | 0.00 | 0.00 | 0.00 | 40 | 1008.2 |
| 20260504205005 | 74 | 255 | 5.2 | 11.3 | 0.00 | 0.00 | 0.00 | 38 | 1008.2 |
| 20260504204505 | 74 | 210 | 5.2 | 11.3 | 0.00 | 0.00 | 0.00 | 37 | 1008.2 |
| 20260504204003 | 74 | 268 | 5.2 | 11.3 | 0.00 | 0.00 | 0.00 | 36 | 1008.3 |
| 20260504203508 | 74 | 270 | 4.3 | 9.6 | 0.00 | 0.00 | 0.00 | 39 | 1008.2 |
| 20260504203012 | 74 | 321 | 4.3 | 8.7 | 0.00 | 0.00 | 0.00 | 37 | 1008.3 |
| 20260504202505 | 74 | 176 | 4.3 | 8.7 | 0.00 | 0.00 | 0.00 | 38 | 1008.3 |
| 20260504202004 | 73 | 199 | 4.3 | 12.2 | 0.00 | 0.00 | 0.00 | 39 | 1008.5 |
| 20260504201514 | 73 | 294 | 5.2 | 12.2 | 0.00 | 0.00 | 0.00 | 36 | 1008.6 |
| 20260504201004 | 73 | 229 | 6.1 | 11.3 | 0.00 | 0.00 | 0.00 | 40 | 1008.7 |
| 20260504200503 | 73 | 212 | 4.3 | 11.3 | 0.00 | 0.00 | 0.00 | 38 | 1008.8 |
| 20260504200004 | 73 | 184 | 5.2 | 11.3 | 0.00 | 0.00 | 0.00 | 39 | 1008.8 |
| 20260504195502 | 73 | 193 | 2.6 | 11.3 | 0.00 | 0.00 | 0.00 | 41 | 1008.9 |
| 20260504195003 | 73 | 264 | 4.3 | 11.3 | 0.00 | 0.00 | 0.00 | 38 | 1009.0 |
| 20260504194516 | 72 | 183 | 6.1 | 10.4 | 0.00 | 0.00 | 0.00 | 39 | 1009.1 |
| 20260504194003 | 72 | 256 | 4.3 | 12.2 | 0.00 | 0.00 | 0.00 | 37 | 1009.2 |
| 20260504193506 | 72 | 220 | 6.1 | 12.2 | 0.00 | 0.00 | 0.00 | 38 | 1009.2 |
| 20260504193022 | 72 | 245 | 7.0 | 12.2 | 0.00 | 0.00 | 0.00 | 42 | 1009.3 |
| 20260504192506 | 72 | 160 | 4.3 | 12.2 | 0.00 | 0.00 | 0.00 | 39 | 1009.4 |
| 20260504192002 | 72 | 242 | 5.2 | 11.3 | 0.00 | 0.00 | 0.00 | 40 | 1009.6 |
| 20260504191508 | 72 | 173 | 5.2 | 11.3 | 0.00 | 0.00 | 0.00 | 37 | 1009.6 |
| 20260504191005 | 72 | 219 | 4.3 | 10.4 | 0.00 | 0.00 | 0.00 | 40 | 1009.6 |
| 20260504190507 | 72 | 213 | 6.1 | 12.2 | 0.00 | 0.00 | 0.00 | 39 | 1009.8 |
| 20260504190017 | 71 | 180 | 4.3 | 12.2 | 0.00 | 0.00 | 0.00 | 40 | 1009.8 |
| 20260504185512 | 71 | 189 | 6.1 | 13.9 | 0.00 | 0.00 | 0.00 | 38 | 1009.9 |
| 20260504185015 | 71 | 170 | 4.3 | 13.9 | 0.00 | 0.00 | 0.00 | 37 | 1010.0 |
| 20260504184520 | 71 | 271 | 6.1 | 13.0 | 0.00 | 0.00 | 0.00 | 39 | 1010.0 |
| 20260504184004 | 71 | 267 | 4.3 | 9.6 | 0.00 | 0.00 | 0.00 | 37 | 1010.1 |
| 20260504183504 | 71 | 287 | 4.3 | 11.3 | 0.00 | 0.00 | 0.00 | 40 | 1010.1 |
| 20260504183011 | 71 | 178 | 4.3 | 11.3 | 0.00 | 0.00 | 0.00 | 40 | 1010.2 |
| 20260504182503 | 71 | 224 | 5.2 | 10.4 | 0.00 | 0.00 | 0.00 | 43 | 1010.1 |
| 20260504182009 | 70 | 259 | 3.5 | 12.2 | 0.00 | 0.00 | 0.00 | 41 | 1010.3 |
| 20260504181527 | 70 | 259 | 2.6 | 13.0 | 0.00 | 0.00 | 0.00 | 39 | 1010.3 |
| 20260504181005 | 70 | 266 | 5.2 | 13.0 | 0.00 | 0.00 | 0.00 | 40 | 1010.4 |
| 20260504180511 | 70 | 252 | 6.1 | 8.7 | 0.00 | 0.00 | 0.00 | 37 | 1010.4 |
| 20260504180022 | 70 | 276 | 3.5 | 8.7 | 0.00 | 0.00 | 0.00 | 38 | 1010.4 |
| 20260504175503 | 70 | 179 | 4.3 | 8.7 | 0.00 | 0.00 | 0.00 | 39 | 1010.6 |
| 20260504175004 | 70 | 191 | 4.3 | 9.6 | 0.00 | 0.00 | 0.00 | 39 | 1010.7 |
| 20260504174516 | 70 | 189 | 7.0 | 10.4 | 0.00 | 0.00 | 0.00 | 38 | 1010.7 |
| 20260504174007 | 69 | 212 | 4.3 | 10.4 | 0.00 | 0.00 | 0.00 | 39 | 1010.7 |
| 20260504173507 | 70 | 277 | 4.3 | 10.4 | 0.00 | 0.00 | 0.00 | 45 | 1010.8 |
| 20260504173021 | 69 | 268 | 3.5 | 11.3 | 0.00 | 0.00 | 0.00 | 41 | 1010.9 |
| 20260504172507 | 70 | 172 | 5.2 | 11.3 | 0.00 | 0.00 | 0.00 | 41 | 1011.1 |
| 20260504172005 | 69 | 154 | 3.5 | 10.4 | 0.00 | 0.00 | 0.00 | 41 | 1011.1 |
| 20260504171511 | 69 | 240 | 3.5 | 10.4 | 0.00 | 0.00 | 0.00 | 40 | 1011.2 |
| 20260504171003 | 69 | 261 | 6.1 | 10.4 | 0.00 | 0.00 | 0.00 | 41 | 1011.4 |
| 20260504170505 | 69 | 252 | 3.5 | 10.4 | 0.00 | 0.00 | 0.00 | 40 | 1011.5 |